Time;durP1;ratioP1;P1;durP2;ratioP2;P2;SDS_P1;SDS_P2;PMS_P1;PMS_P2;Temp;Humidity;BMP_temperature;BMP_pressure;BME280_temperature;BME280_humidity;BME280_pressure;Samples;Min_cycle;Max_cycle;Signal;HPM_P1;HPM_P2
2021/12/16 00:03:26;;;;;;;11.23;7.50;;;7.10;82.40;;;6.18;68.86;96315.75;5054156;28;20220;-83
2021/12/16 00:08:32;;;;;;;11.40;7.95;;;7.00;82.40;;;6.20;69.08;96309.44;5035228;28;20306;-82
2021/12/16 00:20:16;;;;;;;11.60;7.57;;;7.00;82.40;;;6.18;68.90;96287.09;5069431;28;20821;-82
2021/12/16 00:33:38;;;;;;;10.80;7.88;;;7.10;82.60;;;6.23;68.88;96290.94;5035618;28;20571;-82
2021/12/16 00:36:09;;;;;;;13.30;9.23;;;7.00;82.50;;;6.21;68.47;96292.88;5020756;28;20216;-82
2021/12/16 00:38:39;;;;;;;12.20;8.75;;;7.10;82.50;;;6.21;68.70;96292.03;5017585;28;20192;-83
2021/12/16 00:41:08;;;;;;;12.45;9.63;;;7.10;82.50;;;6.23;68.88;96301.34;5034941;28;20250;-83
2021/12/16 00:43:46;;;;;;;11.93;8.75;;;7.10;82.50;;;6.16;68.93;96283.78;5034690;28;20238;-83
2021/12/16 00:54:20;;;;;;;14.13;9.25;;;7.10;82.50;;;6.13;68.82;96290.06;5037214;28;20231;-81
2021/12/16 00:56:57;;;;;;;13.35;9.15;;;7.00;82.40;;;6.12;68.73;96290.22;5017534;28;20196;-82
2021/12/16 00:59:28;;;;;;;11.48;8.68;;;7.10;82.40;;;6.12;69.03;96293.63;5052050;28;20310;-83
2021/12/16 01:02:33;;;;;;;14.10;8.95;;;7.00;82.40;;;6.12;68.92;96296.22;5018977;28;20333;-82
2021/12/16 01:46:33;;;;;;;9.70;7.05;;;6.90;82.70;;;6.05;69.35;96295.94;5039468;28;20212;-81
2021/12/16 01:57:06;;;;;;;10.70;7.70;;;6.90;82.70;;;6.03;69.12;96290.03;5087428;28;20204;-82
2021/12/16 01:59:36;;;;;;;10.10;7.03;;;6.90;82.70;;;6.05;69.27;96285.53;5071001;28;20306;-81
2021/12/16 02:02:36;;;;;;;8.90;6.53;;;6.90;82.80;;;6.05;69.25;96284.69;5070601;28;20196;-82
2021/12/16 02:05:37;;;;;;;10.80;7.13;;;7.00;82.80;;;6.08;69.20;96289.66;5039477;28;20227;-81
2021/12/16 02:10:45;;;;;;;10.38;7.72;;;6.90;82.80;;;6.07;69.38;96291.41;5033683;28;20307;-82
2021/12/16 02:13:39;;;;;;;12.45;7.45;;;7.00;82.80;;;6.07;69.34;96286.19;5000970;28;20224;-82
2021/12/16 02:37:46;;;;;;;9.73;6.97;;;6.90;82.80;;;6.05;69.36;96261.25;5037711;28;20199;-81
2021/12/16 02:40:17;;;;;;;10.80;7.72;;;6.90;82.80;;;6.04;69.26;96267.41;5017320;28;20307;-81
2021/12/16 02:48:30;;;;;;;11.52;7.97;;;6.90;82.80;;;6.01;69.55;96272.88;5022228;28;20730;-81
2021/12/16 02:51:06;;;;;;;11.57;8.30;;;6.90;82.80;;;6.00;69.60;96272.03;5021617;28;20235;-82
2021/12/16 02:53:37;;;;;;;13.05;9.25;;;6.90;82.80;;;5.99;69.62;96249.56;5052194;28;20230;-81
2021/12/16 02:56:05;;;;;;;11.15;8.60;;;6.90;82.90;;;6.00;69.17;96253.81;5036055;28;20219;-81
2021/12/16 02:58:34;;;;;;;11.65;8.75;;;6.90;82.90;;;6.00;69.44;96256.41;5015981;28;20220;-82
2021/12/16 03:01:17;;;;;;;11.20;8.05;;;7.00;82.90;;;6.01;69.24;96262.47;5065492;28;20236;-81
2021/12/16 03:03:44;;;;;;;11.38;9.07;;;6.90;82.90;;;6.00;69.63;96255.59;5049541;28;20258;-82
2021/12/16 03:06:12;;;;;;;14.23;9.38;;;6.90;82.90;;;5.98;69.81;96258.31;5065545;28;20254;-82
2021/12/16 03:08:40;;;;;;;12.20;8.85;;;6.90;82.90;;;5.98;69.42;96257.47;5029068;28;20203;-82
2021/12/16 03:21:39;;;;;;;10.38;7.72;;;6.90;82.90;;;6.01;69.46;96260.69;5035042;28;20199;-81
2021/12/16 03:30:04;;;;;;;14.68;10.13;;;6.90;83.10;;;6.01;69.65;96262.47;5002360;28;20265;-81
2021/12/16 03:33:21;;;;;;;11.95;8.98;;;6.90;83.00;;;5.98;69.52;96268.72;5051985;28;20285;-82
2021/12/16 03:36:14;;;;;;;10.35;8.40;;;6.90;83.00;;;6.00;69.62;96261.63;5040017;28;20286;-81
2021/12/16 03:38:45;;;;;;;11.48;8.80;;;6.90;83.00;;;6.00;69.98;96266.03;5025295;28;20604;-81
2021/12/16 03:41:13;;;;;;;11.38;8.65;;;6.90;83.00;;;6.03;69.95;96265.75;5035284;28;20254;-82
2021/12/16 03:43:42;;;;;;;10.07;7.88;;;6.90;83.10;;;6.03;69.63;96271.78;5035552;28;20198;-82
2021/12/16 03:46:25;;;;;;;13.75;9.45;;;6.90;83.10;;;6.05;69.44;96271.66;5051632;28;20223;-80
2021/12/16 03:49:14;;;;;;;12.48;7.88;;;6.90;83.10;;;6.03;69.61;96274.41;5035697;28;20192;-82
2021/12/16 03:51:56;;;;;;;9.73;7.90;;;6.90;83.90;;;6.04;69.68;96285.63;5034944;28;20212;-82
2021/12/16 03:54:33;;;;;;;12.50;8.30;;;6.90;83.10;;;6.03;69.59;96274.41;5068259;28;20285;-82
2021/12/16 03:57:07;;;;;;;9.07;7.25;;;7.00;83.10;;;6.01;69.90;96278.91;5034959;28;20208;-80
2021/12/16 03:59:38;;;;;;;8.95;6.57;;;6.90;83.10;;;6.04;69.62;96275.22;5018850;28;20251;-81
2021/12/16 04:02:32;;;;;;;8.52;7.28;;;6.90;83.10;;;6.04;69.80;96281.25;5038185;28;20199;-81
2021/12/16 04:05:01;;;;;;;8.50;6.50;;;6.90;83.10;;;6.07;69.66;96288.81;5034554;28;20219;-80
2021/12/16 04:07:36;;;;;;;9.50;7.20;;;6.90;83.00;;;6.03;69.54;96281.38;5016492;28;20200;-80
2021/12/16 04:11:18;;;;;;;7.60;6.22;;;6.90;83.00;;;6.05;69.32;96284.69;4997671;28;20224;-82
2021/12/16 04:14:00;;;;;;;9.55;6.43;;;7.00;83.10;;;6.02;69.72;96287.56;5050565;28;20228;-81
2021/12/16 04:16:56;;;;;;;9.80;6.88;;;6.90;83.00;;;6.01;69.39;96281.50;5019419;28;20607;-81
2021/12/16 04:19:36;;;;;;;7.82;6.05;;;7.00;83.00;;;6.00;69.64;96279.84;5021391;28;20294;-81
2021/12/16 04:22:16;;;;;;;8.82;6.05;;;6.90;82.90;;;6.01;69.74;96281.50;5034554;28;20210;-81
2021/12/16 04:24:48;;;;;;;7.72;5.28;;;7.00;83.00;;;6.03;69.41;96287.44;5036320;28;20235;-82
2021/12/16 04:27:17;;;;;;;6.75;5.43;;;6.90;83.00;;;6.04;69.74;96286.47;5050965;28;20199;-82
2021/12/16 04:29:45;;;;;;;6.93;5.22;;;6.90;83.00;;;6.04;69.56;96285.63;5033906;28;20242;-82
2021/12/16 04:32:16;;;;;;;7.13;4.93;;;6.90;83.00;;;6.04;68.93;96283.88;5018344;28;20243;-81
2021/12/16 04:34:44;;;;;;;7.13;5.57;;;6.90;83.00;;;5.96;69.55;96270.63;5017766;28;20509;-81
2021/12/16 04:37:12;;;;;;;8.38;5.57;;;6.90;83.90;;;6.01;69.60;96280.69;5017871;28;20234;-81
2021/12/16 04:39:42;;;;;;;4.78;4.22;;;6.90;83.00;;;6.02;69.60;96277.94;5034548;28;20224;-82
2021/12/16 04:42:11;;;;;;;6.10;5.10;;;6.90;83.00;;;6.01;69.60;96280.69;5068260;28;20298;-82
2021/12/16 04:44:42;;;;;;;6.00;4.88;;;6.90;82.90;;;5.95;69.77;96276.78;5051420;28;20223;-82
2021/12/16 04:47:11;;;;;;;5.13;4.38;;;6.90;83.00;;;5.94;69.60;96277.75;5035551;28;21155;-81
2021/12/16 04:49:39;;;;;;;4.97;4.47;;;7.00;83.00;;;6.00;69.67;96294.66;5055020;28;20227;-81
2021/12/16 04:52:17;;;;;;;6.47;4.90;;;6.90;82.90;;;5.99;69.35;96293.81;5021557;28;20192;-81
2021/12/16 04:54:46;;;;;;;6.07;4.75;;;6.90;83.00;;;5.99;69.76;96299.03;5054572;28;20739;-82
2021/12/16 04:57:15;;;;;;;5.93;4.78;;;6.90;83.00;;;5.98;69.63;96291.31;5021355;28;20207;-82
2021/12/16 04:59:45;;;;;;;6.22;4.85;;;6.90;83.00;;;5.99;69.37;96306.03;5022517;28;20216;-82
2021/12/16 05:02:19;;;;;;;6.75;4.93;;;6.90;83.00;;;5.98;69.55;96301.75;5021738;28;20204;-82
2021/12/16 05:05:22;;;;;;;6.13;4.65;;;6.90;83.00;;;5.98;69.90;96301.75;4963546;28;20306;-80
2021/12/16 05:07:52;;;;;;;8.30;5.32;;;6.90;83.00;;;5.98;69.73;96293.94;5022643;28;20205;-82
2021/12/16 05:10:27;;;;;;;5.10;4.60;;;6.90;83.00;;;5.92;69.81;96290.09;5057485;28;20235;-81
2021/12/16 05:13:05;;;;;;;6.90;5.10;;;6.90;83.00;;;5.93;69.83;96299.53;5039041;28;20215;-81
2021/12/16 05:15:36;;;;;;;5.60;4.80;;;6.90;83.00;;;5.92;69.72;96292.69;5037286;28;20212;-80
2021/12/16 05:18:09;;;;;;;5.22;4.53;;;6.90;83.00;;;5.92;69.48;96297.91;5022202;28;20623;-80
2021/12/16 05:20:44;;;;;;;4.53;4.13;;;6.90;83.00;;;5.93;69.97;96299.53;5038090;28;20219;-81
2021/12/16 05:28:54;;;;;;;6.13;4.57;;;6.80;83.00;;;5.84;69.76;96301.13;5038159;28;20227;-81
2021/12/16 05:31:25;;;;;;;5.80;4.18;;;6.80;83.00;;;5.83;69.93;96303.84;5021171;28;20637;-81
2021/12/16 05:33:56;;;;;;;4.53;3.97;;;6.80;83.00;;;5.84;69.90;96308.13;5020881;28;20708;-81
2021/12/16 05:36:24;;;;;;;4.70;4.20;;;6.80;83.00;;;5.81;70.02;96313.56;5021206;28;20661;-80
2021/12/16 05:38:51;;;;;;;5.65;4.47;;;6.80;83.00;;;5.80;70.02;96302.34;5020028;28;20290;-80
2021/12/16 05:41:23;;;;;;;5.10;4.40;;;6.80;83.10;;;5.79;70.32;96318.91;5037342;28;20200;-80
2021/12/16 05:43:55;;;;;;;4.50;3.90;;;6.80;83.20;;;5.80;70.07;96314.50;5055693;28;20212;-80
2021/12/16 05:46:24;;;;;;;4.60;4.07;;;6.70;83.20;;;5.79;70.03;96315.50;5036949;28;20291;-82
2021/12/16 05:48:55;;;;;;;5.00;4.50;;;6.70;83.20;;;5.80;70.23;96317.13;5020979;28;20856;-81
2021/12/16 05:51:35;;;;;;;5.05;4.18;;;6.70;83.20;;;5.80;70.20;96314.50;5054827;28;20211;-81
2021/12/16 05:54:06;;;;;;;4.72;3.83;;;6.70;83.30;;;5.74;70.07;96313.25;5037084;28;20238;-81
2021/12/16 05:56:40;;;;;;;5.13;4.30;;;6.80;83.40;;;5.77;70.59;96326.00;5052860;28;20662;-81
2021/12/16 05:59:12;;;;;;;5.90;3.67;;;6.70;83.30;;;5.81;70.45;96334.41;5020931;28;20216;-81
2021/12/16 06:01:43;;;;;;;4.80;3.90;;;6.80;83.40;;;5.76;70.04;96333.00;5052597;28;20682;-80
2021/12/16 06:04:10;;;;;;;4.88;4.18;;;6.70;83.30;;;5.80;70.34;96330.97;5037167;28;20219;-80
2021/12/16 06:06:38;;;;;;;5.18;4.68;;;6.80;83.40;;;5.81;70.61;96337.00;5036830;28;20196;-80
2021/12/16 06:09:08;;;;;;;5.88;5.18;;;6.70;83.40;;;5.80;70.43;96335.34;5036174;28;20219;-80
2021/12/16 06:11:40;;;;;;;5.60;4.70;;;6.70;83.40;;;5.81;70.50;96334.41;5020070;28;20203;-81
2021/12/16 06:14:26;;;;;;;6.65;4.72;;;6.70;83.40;;;5.84;70.41;96347.97;5020716;28;20257;-81
2021/12/16 06:27:50;;;;;;;5.50;4.65;;;6.70;83.50;;;5.82;70.43;96362.91;5035885;28;20367;-81
2021/12/16 06:30:25;;;;;;;5.90;5.03;;;6.70;83.50;;;5.83;70.53;96359.34;5034968;28;20204;-79
2021/12/16 06:32:52;;;;;;;7.20;5.40;;;6.80;83.50;;;5.81;70.46;96357.81;5033406;28;20788;-81
2021/12/16 06:35:22;;;;;;;6.20;5.60;;;6.80;83.60;;;5.81;70.33;96358.66;5034773;28;20238;-80
2021/12/16 06:37:50;;;;;;;5.00;4.47;;;6.80;83.60;;;5.86;70.27;96360.88;5035880;28;20204;-80
2021/12/16 06:40:25;;;;;;;5.30;4.28;;;6.70;83.50;;;5.87;70.35;96358.16;5032682;28;20301;-81
2021/12/16 06:43:10;;;;;;;5.13;4.57;;;6.70;83.50;;;5.80;70.30;96351.81;5018463;28;20681;-80
2021/12/16 06:45:42;;;;;;;5.28;4.75;;;6.80;83.60;;;5.86;70.60;96353.91;5038169;28;20220;-80
2021/12/16 06:48:14;;;;;;;7.35;6.00;;;6.70;83.50;;;5.84;70.61;96352.38;5035921;28;20204;-79
2021/12/16 06:53:26;;;;;;;4.30;3.90;;;6.80;83.60;;;5.81;70.53;96355.22;5052168;28;20684;-79
2021/12/16 06:58:30;;;;;;;4.20;3.80;;;6.70;83.60;;;5.83;70.44;96356.75;5036090;28;20227;-81
2021/12/16 07:01:11;;;;;;;4.35;3.90;;;6.70;83.70;;;5.86;70.46;96366.06;5036941;28;20212;-81
2021/12/16 07:03:49;;;;;;;4.22;3.42;;;6.70;83.60;;;5.86;70.31;96359.13;5036841;28;20207;-81
2021/12/16 07:06:27;;;;;;;4.45;4.05;;;6.70;83.60;;;5.87;70.42;96368.56;5020499;28;20234;-81
2021/12/16 07:09:26;;;;;;;4.63;4.10;;;6.70;83.70;;;5.83;70.68;96366.34;5018431;28;20208;-81
2021/12/16 07:11:57;;;;;;;5.03;4.05;;;6.80;83.70;;;5.89;70.73;96371.06;5026181;28;20267;-81
2021/12/16 07:14:40;;;;;;;6.68;4.15;;;6.80;83.80;;;5.88;70.91;96369.41;5068774;28;20227;-81
2021/12/16 07:17:15;;;;;;;5.25;4.00;;;6.80;83.80;;;5.89;70.89;96377.06;5036770;28;20188;-81
2021/12/16 07:19:44;;;;;;;6.35;4.53;;;6.80;83.80;;;5.89;70.59;96381.47;5035428;28;20261;-83
2021/12/16 07:22:13;;;;;;;12.55;4.20;;;6.80;83.80;;;5.90;70.95;96377.91;5035070;28;20278;-81
2021/12/16 07:24:41;;;;;;;5.10;4.32;;;6.80;83.90;;;5.92;70.73;96378.63;5035269;28;20293;-81
2021/12/16 07:27:08;;;;;;;6.90;4.10;;;6.80;83.80;;;5.93;70.89;96380.25;5043838;28;20284;-81
2021/12/16 07:29:37;;;;;;;5.43;4.22;;;6.80;83.90;;;5.95;70.62;96387.97;5032077;28;20212;-81
2021/12/16 07:32:05;;;;;;;8.43;4.05;;;6.90;84.00;;;5.95;70.72;96390.56;5032118;28;20230;-80
2021/12/16 07:34:32;;;;;;;4.75;4.20;;;6.80;83.90;;;5.97;70.90;96399.91;5036802;28;20223;-81
2021/12/16 07:37:04;;;;;;;7.82;4.22;;;6.80;83.90;;;6.01;70.65;96387.47;5051118;28;20192;-80
2021/12/16 07:39:38;;;;;;;9.93;4.60;;;6.80;83.90;;;6.01;70.66;96393.50;5035390;28;20227;-81
2021/12/16 07:42:11;;;;;;;10.73;4.60;;;6.90;84.00;;;6.03;70.41;96394.22;5035743;28;20219;-81
2021/12/16 07:44:39;;;;;;;5.00;4.05;;;6.90;84.00;;;6.01;70.40;96390.09;5034552;28;20212;-81
2021/12/16 07:47:10;;;;;;;7.43;4.28;;;6.90;84.00;;;6.03;70.54;96399.41;5051390;28;20261;-80
2021/12/16 07:49:41;;;;;;;6.30;4.63;;;6.90;83.90;;;6.02;70.80;96396.94;5034866;28;20223;-80
2021/12/16 07:52:15;;;;;;;9.55;4.65;;;6.90;83.90;;;6.00;70.61;96394.44;5034909;28;20196;-81
2021/12/16 07:54:42;;;;;;;6.75;4.60;;;6.90;83.90;;;6.04;70.55;96398.47;5034657;28;20223;-81
2021/12/16 07:57:11;;;;;;;6.28;4.95;;;6.90;83.90;;;6.06;70.68;96391.34;5034138;28;20239;-81
2021/12/16 07:59:39;;;;;;;6.72;5.18;;;6.90;83.90;;;6.05;70.54;96394.91;5033244;28;20223;-80
2021/12/16 08:02:11;;;;;;;5.55;4.72;;;6.90;83.90;;;6.09;70.80;96403.28;5034342;28;20200;-80
2021/12/16 08:04:44;;;;;;;5.85;5.25;;;6.90;83.90;;;6.07;70.64;96393.00;5017331;28;20697;-79
2021/12/16 08:07:18;;;;;;;5.78;5.18;;;6.90;83.90;;;6.10;70.50;96397.13;5035057;28;20254;-79
2021/12/16 08:09:46;;;;;;;7.15;5.75;;;6.90;83.90;;;6.09;70.98;96398.91;5033981;28;20269;-79
2021/12/16 08:12:15;;;;;;;6.90;5.60;;;7.00;84.00;;;6.10;70.70;96399.72;5018340;28;20246;-80
2021/12/16 08:14:44;;;;;;;6.82;6.13;;;7.00;84.00;;;6.12;70.54;96402.22;5034205;28;20220;-80
2021/12/16 08:17:14;;;;;;;7.53;6.35;;;7.00;84.00;;;6.11;70.89;96405.78;5067187;28;20195;-79
2021/12/16 08:19:44;;;;;;;8.30;5.65;;;7.00;84.00;;;6.12;70.81;96416.06;5037844;28;20211;-80
2021/12/16 08:22:13;;;;;;;6.70;5.88;;;7.00;84.00;;;6.12;70.78;96407.44;5052346;28;20462;-79
2021/12/16 08:24:41;;;;;;;6.45;5.85;;;7.00;84.00;;;6.15;70.71;96410.63;5054559;28;20257;-79
2021/12/16 08:27:10;;;;;;;7.90;6.68;;;7.00;84.00;;;6.13;70.55;96411.66;5038156;28;20242;-79
2021/12/16 08:29:38;;;;;;;8.10;6.28;;;7.00;84.00;;;6.11;70.81;96405.78;5054890;28;20220;-80
2021/12/16 08:32:06;;;;;;;7.05;6.35;;;7.00;84.00;;;6.16;70.74;96416.63;5038279;28;20191;-80
2021/12/16 08:34:37;;;;;;;7.10;6.00;;;7.10;84.10;;;6.19;70.79;96424.19;5041302;28;20593;-79
2021/12/16 08:37:09;;;;;;;7.35;6.45;;;7.00;84.00;;;6.22;70.79;96413.53;5055841;28;20200;-80
2021/12/16 08:39:37;;;;;;;8.48;7.57;;;7.00;84.00;;;6.15;70.79;96410.63;5041786;28;20696;-80
2021/12/16 08:42:09;;;;;;;9.02;7.75;;;7.00;84.10;;;6.17;70.56;96408.69;5055708;28;20219;-80
2021/12/16 08:44:37;;;;;;;8.35;7.13;;;7.10;84.30;;;6.25;70.76;96418.50;5055347;28;20286;-81
2021/12/16 08:47:12;;;;;;;8.35;7.05;;;7.20;84.20;;;6.27;70.54;96426.19;5068030;28;20216;-81
2021/12/16 08:49:40;;;;;;;8.77;7.28;;;7.10;84.10;;;6.29;70.74;96425.09;5035362;28;20223;-80
2021/12/16 08:52:18;;;;;;;9.10;7.30;;;7.10;84.10;;;6.29;70.36;96426.88;5038108;28;20219;-81
2021/12/16 08:54:47;;;;;;;9.52;8.20;;;7.10;84.20;;;6.30;70.62;96431.97;5054635;28;20593;-80
2021/12/16 08:57:15;;;;;;;11.88;9.40;;;7.10;84.00;;;6.31;70.62;96438.81;5037990;28;20235;-80
2021/12/16 08:59:44;;;;;;;11.15;8.40;;;7.10;84.00;;;6.33;70.71;96430.88;5037867;28;20216;-80
2021/12/16 09:02:12;;;;;;;10.93;8.73;;;7.10;84.00;;;6.32;70.50;96430.03;5070486;28;20291;-80
2021/12/16 09:04:40;;;;;;;10.95;9.02;;;7.20;84.10;;;6.37;70.38;96437.47;5054560;28;20212;-80
2021/12/16 09:07:11;;;;;;;11.30;8.90;;;7.20;84.20;;;6.39;70.50;96430.34;5054839;28;20228;-80
2021/12/16 09:09:40;;;;;;;11.10;9.32;;;7.20;84.20;;;6.41;70.70;96442.31;5054176;28;20219;-79
2021/12/16 09:12:37;;;;;;;12.57;10.45;;;7.20;84.20;;;6.41;70.41;96431.06;5037766;28;20599;-80
2021/12/16 09:15:08;;;;;;;12.02;9.82;;;7.20;84.10;;;6.44;70.54;96441.22;5040381;28;20232;-81
2021/12/16 09:17:36;;;;;;;11.65;9.65;;;7.30;84.20;;;6.46;70.37;96448.91;5037594;28;20720;-81
2021/12/16 09:20:07;;;;;;;13.07;10.02;;;7.30;84.20;;;6.50;70.53;96440.69;5021209;28;20648;-81
2021/12/16 09:22:35;;;;;;;11.63;9.35;;;7.30;84.20;;;6.55;70.46;96450.75;5054134;28;20195;-80
2021/12/16 09:25:04;;;;;;;10.52;9.13;;;7.30;84.30;;;6.59;70.57;96444.31;5021039;28;20238;-79
2021/12/16 09:27:32;;;;;;;10.43;8.77;;;7.30;84.30;;;6.66;70.80;96442.84;5053974;28;20400;-81
2021/12/16 09:30:00;;;;;;;11.82;10.10;;;7.40;84.40;;;6.70;70.20;96440.81;5037646;28;20204;-81
2021/12/16 09:32:30;;;;;;;11.15;9.50;;;7.40;84.40;;;6.73;70.33;96441.38;5036669;28;20658;-81
2021/12/16 09:34:58;;;;;;;11.20;9.60;;;7.50;84.50;;;6.77;70.17;96434.13;5037594;28;20567;-80
2021/12/16 09:37:26;;;;;;;10.63;8.93;;;7.50;84.40;;;6.81;70.24;96442.50;5037397;28;20284;-80
2021/12/16 09:39:54;;;;;;;11.52;9.70;;;7.50;84.30;;;6.83;69.87;96425.78;5037038;28;20298;-81
2021/12/16 09:42:24;;;;;;;10.30;9.10;;;7.60;84.20;;;6.81;69.95;96427.72;5020807;28;20204;-80
2021/12/16 09:44:54;;;;;;;10.77;8.82;;;7.60;84.10;;;6.87;70.06;96418.50;5020751;28;20232;-79
2021/12/16 09:47:23;;;;;;;11.23;9.48;;;7.60;84.20;;;6.95;70.26;96423.09;5020844;28;20226;-81
2021/12/16 09:49:50;;;;;;;13.55;10.80;;;7.70;84.60;;;7.03;70.03;96416.25;5020028;28;20247;-82
2021/12/16 09:52:17;;;;;;;10.90;9.10;;;7.70;84.60;;;7.09;69.99;96404.44;5036621;28;20212;-81
2021/12/16 09:54:46;;;;;;;11.65;9.18;;;7.80;84.50;;;7.13;69.69;96405.00;5036623;28;20251;-80
2021/12/16 09:57:16;;;;;;;9.75;8.18;;;7.80;84.30;;;7.15;69.55;96408.31;5054570;28;20282;-80
2021/12/16 09:59:45;;;;;;;8.90;8.00;;;7.90;84.10;;;7.04;69.25;96398.81;5036920;28;20244;-82
2021/12/16 10:02:18;;;;;;;9.93;8.23;;;7.90;83.90;;;7.12;69.29;96401.59;5053528;28;20214;-81
2021/12/16 10:04:47;;;;;;;10.65;8.50;;;7.90;83.80;;;7.08;69.16;96394.16;5032570;28;20736;-81
2021/12/16 10:07:28;;;;;;;9.10;7.43;;;8.00;83.70;;;7.13;69.07;96402.41;5017086;28;20201;-80
2021/12/16 10:09:56;;;;;;;9.55;7.50;;;7.90;83.50;;;7.15;69.32;96406.53;5033553;28;20686;-80
2021/12/16 10:12:28;;;;;;;9.07;7.15;;;7.90;83.60;;;7.20;69.39;96406.13;5060947;28;20204;-81
2021/12/16 10:17:34;;;;;;;9.82;7.60;;;8.00;83.60;;;7.25;nan;96400.50;5053375;28;20207;-80
2021/12/16 10:20:21;;;;;;;10.02;7.63;;;8.00;83.50;;;7.27;69.29;96390.78;5020164;28;20740;-80
2021/12/16 10:23:12;;;;;;;10.25;8.02;;;8.10;83.60;;;7.30;69.30;96393.94;5016250;28;20189;-81
2021/12/16 10:25:54;;;;;;;8.95;7.10;;;8.10;83.50;;;7.33;69.28;96392.84;5033153;28;20759;-81
2021/12/16 10:28:30;;;;;;;9.52;7.65;;;8.10;83.40;;;7.35;69.28;96388.31;5036546;28;20250;-79
2021/12/16 10:31:18;;;;;;;8.73;7.07;;;8.20;83.60;;;7.41;69.29;96390.38;5036147;28;20314;-81
2021/12/16 10:34:02;;;;;;;9.10;7.15;;;8.10;83.50;;;7.37;68.88;96368.94;5035642;28;20227;-80
2021/12/16 10:36:41;;;;;;;8.52;7.03;;;8.20;83.50;;;7.42;69.15;96376.38;5037283;28;20704;-81
2021/12/16 10:39:23;;;;;;;8.13;6.80;;;8.20;83.50;;;7.45;69.12;96370.88;5052750;28;20217;-82
2021/12/16 10:41:59;;;;;;;8.55;6.68;;;8.20;83.40;;;7.48;68.90;96375.84;5035531;28;20246;-81
2021/12/16 10:44:33;;;;;;;8.80;7.28;;;8.20;83.50;;;7.55;69.08;96373.50;5034404;28;20219;-81
2021/12/16 10:47:14;;;;;;;8.65;6.95;;;8.30;83.70;;;7.60;69.25;96366.06;5019458;28;20638;-81
2021/12/16 10:49:49;;;;;;;10.40;7.88;;;8.30;83.60;;;7.65;68.93;96358.66;5036125;28;20239;-81
2021/12/16 10:52:27;;;;;;;8.55;6.80;;;8.30;83.70;;;7.71;69.33;96359.88;5051925;28;20629;-80
2021/12/16 10:54:58;;;;;;;10.60;7.18;;;8.40;83.80;;;7.79;69.02;96364.44;5021812;28;20323;-80
2021/12/16 10:57:31;;;;;;;9.02;7.05;;;8.50;83.70;;;7.81;68.67;96355.50;5049196;28;20188;-80
2021/12/16 11:00:08;;;;;;;11.10;7.50;;;8.50;83.50;;;7.83;68.64;96357.97;5079029;28;20694;-82
2021/12/16 11:02:39;;;;;;;9.60;7.70;;;8.50;83.30;;;7.82;68.50;96357.16;5065562;28;20662;-82
2021/12/16 11:05:21;;;;;;;9.18;7.32;;;8.60;83.30;;;7.92;68.85;96364.97;5016100;28;20255;-81
2021/12/16 11:07:54;;;;;;;9.32;6.65;;;8.60;83.30;;;7.98;68.85;96361.81;5044055;28;20219;-80
2021/12/16 11:10:22;;;;;;;10.18;7.60;;;8.70;83.60;;;8.07;68.93;96364.53;5050868;28;20326;-81
2021/12/16 11:13:02;;;;;;;11.85;7.82;;;8.70;83.60;;;8.11;68.68;96363.28;5052227;28;20215;-82
2021/12/16 11:15:47;;;;;;;10.60;8.48;;;8.70;83.50;;;8.10;68.45;96361.66;5043345;28;20228;-82
2021/12/16 11:18:25;;;;;;;10.57;8.23;;;8.80;83.20;;;8.13;68.17;96367.41;5033753;28;20223;-81
2021/12/16 11:21:11;;;;;;;11.73;8.90;;;8.80;83.20;;;8.11;68.30;96361.50;5052214;28;20225;-81
2021/12/16 11:23:44;;;;;;;12.57;9.90;;;8.80;83.10;;;8.07;67.65;96360.13;5034504;28;20228;-81
2021/12/16 11:26:19;;;;;;;13.05;8.77;;;8.80;82.80;;;8.10;68.09;96359.03;5034529;28;20213;-82
2021/12/16 11:28:52;;;;;;;12.13;9.18;;;8.80;82.90;;;8.10;68.18;96362.44;5047722;28;20218;-81
2021/12/16 11:31:28;;;;;;;12.43;9.15;;;8.80;83.00;;;8.13;68.33;96356.13;5042884;28;20657;-81
2021/12/16 11:34:02;;;;;;;15.45;10.15;;;8.80;83.00;;;8.10;67.67;96352.00;5031620;28;20250;-81
2021/12/16 11:36:46;;;;;;;13.65;10.23;;;8.80;82.80;;;8.11;68.07;96352.84;5055913;28;20216;-82
2021/12/16 11:39:22;;;;;;;14.65;10.88;;;8.90;82.70;;;8.08;68.09;96353.09;5035032;28;20698;-81
2021/12/16 11:42:01;;;;;;;13.15;10.75;;;8.90;82.80;;;8.06;67.89;96353.25;5051870;28;20192;-83
2021/12/16 11:44:40;;;;;;;12.90;10.10;;;8.90;82.70;;;8.05;68.14;96353.41;5019328;28;20216;-80
2021/12/16 11:47:16;;;;;;;13.15;10.48;;;8.80;82.70;;;8.08;68.21;96347.88;5032202;28;20669;-82
2021/12/16 11:49:57;;;;;;;12.68;10.13;;;8.90;82.90;;;8.10;68.40;96349.38;5034964;28;20226;-81
2021/12/16 11:52:32;;;;;;;15.23;11.48;;;8.80;82.90;;;8.11;68.26;96345.00;5051034;28;20200;-81
2021/12/16 11:55:09;;;;;;;12.50;10.40;;;8.90;82.80;;;8.13;68.14;96350.88;5034703;28;20690;-81
2021/12/16 11:57:49;;;;;;;12.48;9.80;;;8.90;82.70;;;8.16;68.40;96359.28;5035196;28;20200;-82
2021/12/16 12:00:17;;;;;;;13.10;10.02;;;8.90;82.90;;;8.23;68.26;96356.13;5065789;28;20223;-80
2021/12/16 12:02:55;;;;;;;15.18;10.95;;;8.90;83.00;;;8.24;68.18;96363.81;5049742;28;20240;-81
2021/12/16 12:05:42;;;;;;;14.45;10.55;;;8.90;82.80;;;8.23;68.03;96356.94;5041391;28;20227;-82
2021/12/16 12:08:25;;;;;;;14.95;11.68;;;9.00;82.80;;;8.22;68.06;96347.44;5034869;28;20196;-81
2021/12/16 12:10:59;;;;;;;15.82;12.15;;;8.90;82.60;;;8.22;67.97;96351.84;5050572;28;20239;-81
2021/12/16 12:13:34;;;;;;;15.18;11.77;;;9.00;82.70;;;8.14;68.03;96345.53;5018870;28;20234;-82
2021/12/16 12:16:19;;;;;;;15.32;11.30;;;9.00;82.70;;;8.20;68.08;96353.78;5034201;28;20227;-81
2021/12/16 12:18:59;;;;;;;18.65;13.25;;;8.90;82.70;;;8.14;67.90;96353.38;5050746;28;20734;-81
2021/12/16 12:21:41;;;;;;;18.10;12.98;;;8.90;82.40;;;8.11;68.11;96353.66;5034521;28;20196;-81
2021/12/16 12:24:32;;;;;;;15.32;11.52;;;8.90;82.50;;;8.09;67.91;96357.38;5034705;28;20266;-81
2021/12/16 12:27:10;;;;;;;17.00;12.02;;;8.90;82.60;;;8.08;68.18;96353.94;5043300;28;20193;-81
2021/12/16 12:29:46;;;;;;;17.52;12.38;;;8.90;82.50;;;8.09;68.39;96349.53;5051118;28;20266;-81
2021/12/16 12:32:24;;;;;;;15.48;11.82;;;8.90;82.60;;;8.08;68.37;96356.56;5015341;28;20247;-81
2021/12/16 12:35:06;;;;;;;17.52;12.63;;;8.90;82.60;;;8.04;68.15;96346.53;5031093;28;20251;-81
2021/12/16 12:37:39;;;;;;;18.50;12.55;;;8.90;82.60;;;8.08;68.33;96360.94;5050746;28;20207;-82
2021/12/16 12:40:21;;;;;;;18.85;13.23;;;8.90;82.70;;;8.01;68.19;96363.31;5030526;28;20303;-80
2021/12/16 12:42:53;;;;;;;18.42;13.70;;;8.80;82.60;;;7.93;68.13;96355.34;5063953;28;20200;-80
2021/12/16 12:45:27;;;;;;;19.42;13.45;;;8.80;82.50;;;7.97;68.35;96369.75;5060480;28;20215;-81
2021/12/16 12:47:58;;;;;;;15.15;11.60;;;8.80;82.50;;;7.95;68.64;96372.53;5050209;28;20661;-81
2021/12/16 12:50:35;;;;;;;17.50;13.60;;;8.80;82.60;;;7.92;68.40;96390.25;5050208;28;20220;-81
2021/12/16 12:53:20;;;;;;;16.80;12.18;;;8.80;82.60;;;7.91;68.22;96388.59;5033850;28;20206;-82
2021/12/16 12:55:50;;;;;;;16.23;13.02;;;8.70;82.50;;;7.82;68.53;96385.88;5046844;28;20228;-81
2021/12/16 12:58:23;;;;;;;15.75;12.18;;;8.70;82.50;;;7.77;68.70;96382.84;5050777;28;20287;-81
2021/12/16 13:01:01;;;;;;;17.30;12.40;;;8.70;83.30;;;7.79;68.36;96388.75;5034209;28;20632;-82
2021/12/16 13:03:37;;;;;;;16.90;12.10;;;8.70;82.50;;;7.76;68.43;96398.66;5017966;28;20203;-80
2021/12/16 13:06:16;;;;;;;17.08;12.55;;;8.60;82.60;;;7.67;68.80;96393.28;5051192;28;20207;-81
2021/12/16 13:08:49;;;;;;;15.98;11.65;;;8.60;82.60;;;7.63;68.96;96397.13;5038613;28;20204;-82
2021/12/16 13:11:29;;;;;;;14.65;11.40;;;8.60;82.60;;;7.60;68.94;96378.31;5037838;28;20189;-80
2021/12/16 13:14:20;;;;;;;17.50;12.43;;;8.50;82.70;;;7.57;69.05;96376.81;5054839;28;20187;-81
2021/12/16 13:17:17;;;;;;;17.00;12.48;;;8.50;82.70;;;7.50;69.30;96386.13;5039705;28;20255;-80
2021/12/16 13:23:28;;;;;;;18.02;13.38;;;8.40;83.00;;;7.39;69.48;96370.59;5068422;28;20404;-82
2021/12/16 13:31:53;;;;;;;17.30;12.90;;;8.30;82.90;;;7.36;69.43;96374.28;5038354;28;20713;-83
2021/12/16 13:35:11;;;;;;;17.88;13.10;;;8.30;83.00;;;7.37;69.74;96376.78;5085713;28;20215;-82
2021/12/16 13:37:49;;;;;;;16.92;12.00;;;8.30;83.20;;;7.40;69.86;96367.00;5053863;28;20653;-81
2021/12/16 13:40:34;;;;;;;18.98;13.50;;;8.30;83.30;;;7.40;69.74;96383.50;5036941;28;20658;-82
2021/12/16 13:43:23;;;;;;;16.52;12.30;;;8.30;83.30;;;7.39;69.81;96374.03;5053255;28;20192;-82